Time;durP1;ratioP1;P1;durP2;ratioP2;P2;SDS_P1;SDS_P2;PMS_P1;PMS_P2;Temp;Humidity;BMP_temperature;BMP_pressure;BME280_temperature;BME280_humidity;BME280_pressure;Samples;Min_cycle;Max_cycle;Signal;HPM_P1;HPM_P2
2021/06/19 00:00:47;;;;;;;10.38;9.27;;;20.20;99.90;;;;;;4929593;29;20044;-67
2021/06/19 00:03:13;;;;;;;11.75;9.95;;;20.20;99.90;;;;;;4929395;29;20048;-67
2021/06/19 00:05:39;;;;;;;10.05;9.05;;;20.20;99.90;;;;;;4930085;29;20072;-67
2021/06/19 00:08:05;;;;;;;11.05;9.95;;;20.20;99.90;;;;;;4931037;29;20052;-68
2021/06/19 00:10:31;;;;;;;10.80;9.70;;;20.10;99.90;;;;;;4930555;29;20063;-67
2021/06/19 00:12:57;;;;;;;12.93;10.50;;;20.20;99.90;;;;;;4930855;29;20040;-67
2021/06/19 00:15:25;;;;;;;13.75;10.13;;;20.10;99.90;;;;;;4930929;29;20504;-67
2021/06/19 00:17:52;;;;;;;12.93;11.65;;;20.10;99.90;;;;;;4930498;29;20120;-67
2021/06/19 00:20:20;;;;;;;13.70;11.40;;;20.10;99.90;;;;;;4929838;29;20129;-67
2021/06/19 00:22:47;;;;;;;12.33;11.13;;;20.10;99.90;;;;;;4931145;29;20048;-67
2021/06/19 00:25:15;;;;;;;12.32;10.70;;;20.00;99.90;;;;;;4930678;29;20052;-67
2021/06/19 00:27:41;;;;;;;12.80;11.40;;;20.00;99.90;;;;;;4930687;29;20103;-67
2021/06/19 00:30:09;;;;;;;13.23;11.82;;;20.00;99.90;;;;;;4930274;29;20052;-67
2021/06/19 00:32:35;;;;;;;13.77;12.40;;;19.90;99.90;;;;;;4931036;29;20052;-67
2021/06/19 00:35:04;;;;;;;12.75;11.55;;;19.90;99.90;;;;;;4931556;29;20127;-67
2021/06/19 00:37:34;;;;;;;12.80;11.57;;;19.90;99.90;;;;;;4930309;29;20048;-66
2021/06/19 00:40:02;;;;;;;13.60;11.68;;;19.80;99.90;;;;;;4929405;29;20072;-67
2021/06/19 00:42:28;;;;;;;13.82;11.05;;;19.70;99.90;;;;;;4929957;29;20104;-66
2021/06/19 00:44:56;;;;;;;12.75;11.45;;;19.70;99.90;;;;;;4930304;29;20055;-66
2021/06/19 00:47:23;;;;;;;10.68;9.43;;;19.60;99.90;;;;;;4930320;29;20080;-66
2021/06/19 00:49:48;;;;;;;12.00;10.80;;;19.60;99.90;;;;;;4929794;29;20497;-66
2021/06/19 00:52:14;;;;;;;13.05;11.68;;;19.60;99.90;;;;;;4929636;29;20109;-67
2021/06/19 00:54:40;;;;;;;12.82;10.80;;;19.60;99.90;;;;;;4930922;29;20052;-68
2021/06/19 00:57:08;;;;;;;10.70;9.50;;;19.40;99.90;;;;;;4928439;29;20055;-67
2021/06/19 00:59:36;;;;;;;12.27;10.98;;;19.50;99.90;;;;;;4929674;29;20054;-67
2021/06/19 01:02:02;;;;;;;14.23;12.90;;;19.40;99.90;;;;;;4929622;29;20084;-67
2021/06/19 01:04:28;;;;;;;15.05;13.15;;;19.40;99.90;;;;;;4929722;29;20087;-67
2021/06/19 01:06:53;;;;;;;17.92;13.82;;;19.40;99.90;;;;;;4929561;29;20051;-67
2021/06/19 01:09:19;;;;;;;17.60;14.52;;;19.30;99.90;;;;;;4929909;29;20058;-67
2021/06/19 01:11:45;;;;;;;19.25;16.65;;;19.30;99.90;;;;;;4929373;29;20047;-67
2021/06/19 01:14:11;;;;;;;17.33;15.50;;;19.30;99.90;;;;;;4930064;29;20051;-67
2021/06/19 01:16:37;;;;;;;20.00;16.33;;;19.30;99.90;;;;;;4930740;29;20059;-67
2021/06/19 01:19:04;;;;;;;18.67;16.58;;;19.30;99.90;;;;;;4930259;29;20044;-67
2021/06/19 01:21:30;;;;;;;17.83;15.82;;;19.30;99.90;;;;;;4929139;29;20496;-67
2021/06/19 01:23:58;;;;;;;15.82;14.32;;;19.20;99.90;;;;;;4929756;29;20052;-67
2021/06/19 01:26:31;;;;;;;18.85;16.95;;;19.30;99.90;;;;;;4929401;29;20039;-67
2021/06/19 01:28:58;;;;;;;21.27;18.42;;;19.30;99.90;;;;;;4929445;29;20051;-68
2021/06/19 01:31:26;;;;;;;19.13;17.10;;;19.30;99.90;;;;;;4928463;29;20052;-68
2021/06/19 01:33:52;;;;;;;24.70;19.70;;;19.40;99.90;;;;;;4929466;29;20113;-66
2021/06/19 01:36:23;;;;;;;21.88;19.60;;;19.40;99.90;;;;;;4929316;29;20044;-66
2021/06/19 01:38:50;;;;;;;21.23;19.05;;;19.50;99.90;;;;;;4929292;29;20113;-66
2021/06/19 01:41:22;;;;;;;20.08;18.00;;;19.50;99.90;;;;;;4927678;29;20519;-67
2021/06/19 01:43:49;;;;;;;24.65;22.25;;;19.50;99.90;;;;;;4927801;29;20059;-67
2021/06/19 01:46:16;;;;;;;23.55;21.08;;;19.60;99.90;;;;;;4928842;29;20044;-67
2021/06/19 01:48:42;;;;;;;25.38;22.83;;;19.60;99.90;;;;;;4928732;29;20066;-67
2021/06/19 01:51:10;;;;;;;22.85;20.25;;;19.50;99.90;;;;;;4928575;29;20052;-67
2021/06/19 01:53:43;;;;;;;22.83;20.27;;;19.60;99.90;;;;;;4929470;29;20476;-67
2021/06/19 01:56:10;;;;;;;24.55;22.05;;;19.60;99.90;;;;;;4928722;29;20123;-67
2021/06/19 01:58:36;;;;;;;26.23;23.40;;;19.70;99.90;;;;;;4927713;29;20079;-67
2021/06/19 02:01:04;;;;;;;26.58;23.85;;;19.70;99.90;;;;;;4927229;29;20047;-67
2021/06/19 02:03:30;;;;;;;26.40;23.90;;;19.80;99.90;;;;;;4928511;29;20071;-67
2021/06/19 02:05:56;;;;;;;27.20;23.67;;;19.80;99.90;;;;;;4929779;29;20096;-67
2021/06/19 02:08:22;;;;;;;26.38;23.60;;;19.80;99.90;;;;;;4928952;29;20080;-67
2021/06/19 02:10:48;;;;;;;25.55;22.95;;;19.90;99.90;;;;;;4928688;29;20044;-67
2021/06/19 02:13:15;;;;;;;25.48;22.88;;;19.90;99.90;;;;;;4927563;29;20047;-67
2021/06/19 02:15:44;;;;;;;26.25;23.38;;;19.80;99.90;;;;;;4928722;29;20041;-67
2021/06/19 02:18:10;;;;;;;24.00;21.65;;;19.90;99.90;;;;;;4928660;29;20055;-66
2021/06/19 02:20:36;;;;;;;27.15;24.45;;;19.90;99.90;;;;;;4928731;29;20068;-66
2021/06/19 02:23:03;;;;;;;24.73;22.08;;;19.90;99.90;;;;;;4928288;29;20055;-66
2021/06/19 02:25:30;;;;;;;23.95;21.55;;;19.90;99.90;;;;;;4928810;29;20516;-66
2021/06/19 02:27:59;;;;;;;25.70;23.08;;;19.90;99.90;;;;;;4928827;29;20081;-66
2021/06/19 02:30:33;;;;;;;24.25;21.88;;;19.90;99.90;;;;;;4928067;29;20112;-66
2021/06/19 02:32:59;;;;;;;28.55;25.58;;;19.80;99.90;;;;;;4928286;29;20382;-66
2021/06/19 02:35:28;;;;;;;26.83;24.02;;;19.80;99.90;;;;;;4928352;29;20048;-66
2021/06/19 02:37:56;;;;;;;27.40;24.58;;;19.80;99.90;;;;;;4928984;29;20052;-66
2021/06/19 02:40:22;;;;;;;26.98;24.25;;;19.80;99.90;;;;;;4929201;29;20048;-66
2021/06/19 02:42:48;;;;;;;27.38;24.52;;;19.80;99.90;;;;;;4928699;29;20048;-66
2021/06/19 02:45:15;;;;;;;29.80;26.17;;;19.70;99.90;;;;;;4927945;29;20074;-66
2021/06/19 02:47:52;;;;;;;29.80;25.42;;;19.80;99.90;;;;;;4928311;29;20056;-66
2021/06/19 02:50:22;;;;;;;29.92;24.48;;;19.80;99.90;;;;;;4926742;29;20079;-66
2021/06/19 02:52:48;;;;;;;29.05;24.80;;;19.70;99.90;;;;;;4927997;29;20079;-66
2021/06/19 02:55:20;;;;;;;30.10;25.00;;;19.80;99.90;;;;;;4909578;29;20057;-66
2021/06/19 02:57:46;;;;;;;25.58;23.08;;;19.70;99.90;;;;;;4928824;29;20051;-67
2021/06/19 03:00:15;;;;;;;25.67;22.98;;;19.70;99.90;;;;;;4926595;29;20056;-67
2021/06/19 03:02:42;;;;;;;26.00;23.27;;;19.70;99.90;;;;;;4927959;29;20055;-67
2021/06/19 03:05:10;;;;;;;24.52;22.02;;;19.60;99.90;;;;;;4926712;29;20088;-67
2021/06/19 03:07:37;;;;;;;25.10;22.50;;;19.70;99.90;;;;;;4928381;29;20108;-67
2021/06/19 03:10:05;;;;;;;26.65;23.85;;;19.70;99.90;;;;;;4928037;29;20049;-67
2021/06/19 03:12:31;;;;;;;27.15;23.00;;;19.60;99.90;;;;;;4927528;29;20574;-67
2021/06/19 03:14:57;;;;;;;25.95;22.45;;;19.60;99.90;;;;;;4927910;29;20032;-67
2021/06/19 03:17:23;;;;;;;24.35;21.85;;;19.60;99.90;;;;;;4928045;29;20103;-67
2021/06/19 03:19:49;;;;;;;26.17;23.58;;;19.60;99.90;;;;;;4927748;29;20071;-67
2021/06/19 03:22:16;;;;;;;26.42;23.55;;;19.60;99.90;;;;;;4932068;29;20052;-67
2021/06/19 03:24:43;;;;;;;24.63;22.10;;;19.60;99.90;;;;;;4932677;29;20059;-67
2021/06/19 03:27:11;;;;;;;24.60;22.13;;;19.60;99.90;;;;;;4932663;29;20062;-67
2021/06/19 03:29:37;;;;;;;25.67;22.92;;;19.60;99.90;;;;;;4932321;29;20059;-66
2021/06/19 03:32:05;;;;;;;25.95;23.33;;;19.50;99.90;;;;;;4931844;29;20055;-66
2021/06/19 03:34:32;;;;;;;28.08;23.75;;;19.50;99.90;;;;;;4931148;29;20493;-66
2021/06/19 03:36:59;;;;;;;26.42;23.60;;;19.50;99.90;;;;;;4931614;29;20044;-67
2021/06/19 03:39:31;;;;;;;25.10;22.60;;;19.50;99.90;;;;;;4931275;29;20079;-67
2021/06/19 03:41:57;;;;;;;26.45;23.52;;;19.50;99.90;;;;;;4931527;29;20058;-67
2021/06/19 03:44:24;;;;;;;25.25;22.73;;;19.50;99.90;;;;;;4931485;29;20044;-66
2021/06/19 03:46:51;;;;;;;25.02;22.48;;;19.50;99.90;;;;;;4931701;29;20051;-67
2021/06/19 03:49:17;;;;;;;24.33;21.65;;;19.50;99.90;;;;;;4930961;29;20086;-67
2021/06/19 03:51:44;;;;;;;22.52;20.23;;;19.50;99.90;;;;;;4932080;29;20055;-67
2021/06/19 03:54:10;;;;;;;24.05;21.48;;;19.50;99.90;;;;;;4931831;29;20051;-67
2021/06/19 03:56:35;;;;;;;23.70;21.15;;;19.50;99.90;;;;;;4932158;29;20052;-66
2021/06/19 03:59:01;;;;;;;23.63;21.15;;;19.50;99.90;;;;;;4931739;29;20084;-66
2021/06/19 04:01:28;;;;;;;22.85;20.45;;;19.60;99.90;;;;;;4930942;29;20100;-66
2021/06/19 04:03:54;;;;;;;24.08;21.48;;;19.60;99.90;;;;;;4930707;29;20139;-66
2021/06/19 04:06:20;;;;;;;23.85;21.05;;;19.60;99.90;;;;;;4931351;29;20052;-66
2021/06/19 04:08:45;;;;;;;22.45;20.08;;;19.60;99.90;;;;;;4931487;29;20488;-66
2021/06/19 04:11:14;;;;;;;22.85;20.55;;;19.60;99.90;;;;;;4929813;29;20116;-66
2021/06/19 04:13:43;;;;;;;20.13;18.17;;;19.60;99.90;;;;;;4930542;29;20048;-66
2021/06/19 04:16:10;;;;;;;20.70;18.67;;;19.70;99.90;;;;;;4930801;29;20040;-66
2021/06/19 04:18:37;;;;;;;20.23;18.13;;;19.70;99.90;;;;;;4930535;29;20107;-66
2021/06/19 04:21:03;;;;;;;20.92;18.73;;;19.70;99.90;;;;;;4930687;29;20043;-66
2021/06/19 04:23:30;;;;;;;20.08;18.08;;;19.70;99.90;;;;;;4930265;29;20054;-67
2021/06/19 04:25:56;;;;;;;20.60;18.50;;;19.70;99.90;;;;;;4929533;29;20064;-66
2021/06/19 04:28:23;;;;;;;20.92;18.75;;;19.70;99.90;;;;;;4930620;29;20059;-67
2021/06/19 04:30:49;;;;;;;20.65;18.38;;;19.60;99.90;;;;;;4929219;29;20044;-66
2021/06/19 04:33:15;;;;;;;19.85;17.92;;;19.60;99.90;;;;;;4928100;29;20125;-66
2021/06/19 04:35:41;;;;;;;19.60;17.67;;;19.60;99.90;;;;;;4929293;29;20040;-66
2021/06/19 04:38:06;;;;;;;19.95;17.95;;;19.60;99.90;;;;;;4930121;29;20048;-66
2021/06/19 04:43:23;;;;;;;21.02;17.75;;;19.50;99.90;;;;;;4930363;29;20048;-66
2021/06/19 04:45:49;;;;;;;18.67;16.77;;;19.60;99.90;;;;;;4928955;29;20044;-67
2021/06/19 04:48:15;;;;;;;19.38;17.48;;;19.60;99.90;;;;;;4930122;29;20068;-67
2021/06/19 04:50:41;;;;;;;18.08;16.38;;;19.60;99.90;;;;;;4930186;29;20044;-66
2021/06/19 04:53:10;;;;;;;20.13;18.02;;;19.60;99.90;;;;;;4931223;29;20056;-67
2021/06/19 04:55:36;;;;;;;19.90;17.90;;;19.70;99.90;;;;;;4929799;29;20068;-67
2021/06/19 04:58:03;;;;;;;19.15;17.27;;;19.70;99.90;;;;;;4930043;29;20048;-67
2021/06/19 05:00:29;;;;;;;19.13;17.27;;;19.80;99.90;;;;;;4929831;29;20052;-66
2021/06/19 05:02:56;;;;;;;20.45;18.55;;;19.80;99.90;;;;;;4929907;29;20044;-66
2021/06/19 05:05:24;;;;;;;19.65;17.58;;;19.80;99.90;;;;;;4928161;29;20551;-66
2021/06/19 05:07:50;;;;;;;20.55;17.90;;;19.90;99.90;;;;;;4929964;29;20044;-66
2021/06/19 05:10:17;;;;;;;19.67;17.73;;;19.90;99.90;;;;;;4930640;29;20055;-67
2021/06/19 05:12:43;;;;;;;21.13;19.02;;;19.90;99.90;;;;;;4929965;29;20071;-66
2021/06/19 05:15:12;;;;;;;19.90;17.90;;;19.90;99.90;;;;;;4929340;29;20044;-66
2021/06/19 05:17:39;;;;;;;20.63;18.50;;;20.00;99.90;;;;;;4929721;29;20052;-67
2021/06/19 05:20:06;;;;;;;19.90;17.90;;;20.00;99.90;;;;;;4930371;29;20048;-69
2021/06/19 05:22:33;;;;;;;20.92;18.80;;;20.00;99.90;;;;;;4930645;29;20155;-68
2021/06/19 05:24:59;;;;;;;21.00;18.65;;;20.10;99.90;;;;;;4930279;29;20107;-67
2021/06/19 05:27:25;;;;;;;20.88;18.88;;;20.10;99.90;;;;;;4929855;29;20052;-67
2021/06/19 05:29:51;;;;;;;20.10;18.02;;;20.10;99.90;;;;;;4929244;29;20055;-67
2021/06/19 05:32:16;;;;;;;19.10;17.08;;;20.10;99.90;;;;;;4929585;29;20056;-66
2021/06/19 05:34:43;;;;;;;20.98;18.73;;;20.00;99.90;;;;;;4929317;29;20044;-66
2021/06/19 05:37:09;;;;;;;20.88;18.35;;;20.00;99.90;;;;;;4929836;29;20051;-67
2021/06/19 05:39:35;;;;;;;20.55;18.20;;;20.00;99.90;;;;;;4929956;29;20072;-66
2021/06/19 05:42:02;;;;;;;18.52;16.65;;;20.00;99.90;;;;;;4929157;29;20044;-67
2021/06/19 05:44:28;;;;;;;21.58;19.27;;;20.00;99.90;;;;;;4928669;29;20056;-67
2021/06/19 05:46:53;;;;;;;20.80;18.77;;;20.00;99.90;;;;;;4929026;29;20040;-67
2021/06/19 05:49:19;;;;;;;18.88;16.98;;;20.00;99.90;;;;;;4929673;29;20056;-67
2021/06/19 05:51:45;;;;;;;21.80;18.27;;;20.00;99.90;;;;;;4929824;29;20050;-67
2021/06/19 05:54:11;;;;;;;20.10;18.00;;;20.00;99.90;;;;;;4929573;29;20051;-66
2021/06/19 05:56:37;;;;;;;21.92;18.80;;;20.10;99.90;;;;;;4929603;29;20055;-66
2021/06/19 05:59:02;;;;;;;21.35;19.13;;;20.10;99.90;;;;;;4929337;29;20051;-66
2021/06/19 06:01:31;;;;;;;22.25;19.88;;;20.10;99.90;;;;;;4928545;29;20401;-68
2021/06/19 06:03:58;;;;;;;20.67;18.63;;;20.10;99.90;;;;;;4928672;29;20052;-67
2021/06/19 06:06:24;;;;;;;21.20;19.20;;;20.10;99.90;;;;;;4929703;29;20047;-67
2021/06/19 06:08:51;;;;;;;22.40;19.95;;;20.10;99.90;;;;;;4929771;29;20044;-67
2021/06/19 06:11:17;;;;;;;23.25;20.80;;;20.20;99.90;;;;;;4929810;29;20052;-67
2021/06/19 06:13:43;;;;;;;22.48;20.17;;;20.20;99.90;;;;;;4929322;29;20040;-67
2021/06/19 06:16:09;;;;;;;22.27;19.98;;;20.20;99.90;;;;;;4928884;29;20139;-66
2021/06/19 06:18:35;;;;;;;21.92;19.80;;;20.20;99.90;;;;;;4928639;29;20095;-66
2021/06/19 06:21:04;;;;;;;22.13;19.88;;;20.20;99.90;;;;;;4929765;29;20048;-66
2021/06/19 06:23:31;;;;;;;23.55;21.05;;;20.20;99.90;;;;;;4928971;29;20051;-67
2021/06/19 06:25:58;;;;;;;22.77;20.38;;;20.20;99.90;;;;;;4927094;29;20127;-66
2021/06/19 06:28:24;;;;;;;23.38;20.60;;;20.20;99.90;;;;;;4928440;29;20040;-66
2021/06/19 06:30:50;;;;;;;23.67;21.20;;;20.10;99.90;;;;;;4929067;29;20056;-66
2021/06/19 06:33:16;;;;;;;25.52;21.02;;;20.10;99.90;;;;;;4929319;29;20051;-66
2021/06/19 06:35:42;;;;;;;25.20;20.60;;;20.10;99.90;;;;;;4927757;29;20420;-66
2021/06/19 06:38:08;;;;;;;20.77;18.15;;;20.00;99.90;;;;;;4917947;29;20166;-66
2021/06/19 06:40:34;;;;;;;23.15;19.02;;;20.10;99.90;;;;;;4920868;29;20083;-66
2021/06/19 06:42:59;;;;;;;21.75;19.48;;;20.10;99.90;;;;;;4928044;29;20044;-66
2021/06/19 06:45:26;;;;;;;19.52;17.33;;;20.00;99.90;;;;;;4927554;29;20468;-66
2021/06/19 06:47:52;;;;;;;24.52;19.25;;;20.00;99.90;;;;;;4928339;29;20511;-66
2021/06/19 06:50:19;;;;;;;20.80;17.85;;;19.90;99.90;;;;;;4928336;29;20048;-66
2021/06/19 06:52:45;;;;;;;22.83;20.35;;;20.00;99.90;;;;;;4927278;29;20107;-66
2021/06/19 06:55:12;;;;;;;22.98;18.25;;;20.00;99.90;;;;;;4916283;29;20060;-67
2021/06/19 06:57:38;;;;;;;21.67;18.15;;;20.10;99.90;;;;;;4927613;29;20075;-66
2021/06/19 07:00:07;;;;;;;21.98;18.25;;;20.10;99.90;;;;;;4928394;29;20044;-66
2021/06/19 07:02:33;;;;;;;22.35;18.10;;;20.20;99.90;;;;;;4927495;29;20048;-66
2021/06/19 07:04:59;;;;;;;23.13;18.17;;;20.20;99.90;;;;;;4926674;29;20062;-66
2021/06/19 07:07:25;;;;;;;21.40;18.55;;;20.20;99.90;;;;;;4927871;29;20068;-65
2021/06/19 07:09:50;;;;;;;21.65;17.55;;;20.20;99.90;;;;;;4928781;29;20088;-65
2021/06/19 07:12:16;;;;;;;24.08;18.45;;;20.20;99.90;;;;;;4928377;29;20068;-65
2021/06/19 07:14:42;;;;;;;21.27;18.85;;;20.30;99.90;;;;;;4928797;29;20059;-65
2021/06/19 07:17:09;;;;;;;24.33;19.92;;;20.40;99.90;;;;;;4927219;29;20409;-67
2021/06/19 07:19:36;;;;;;;24.35;20.33;;;20.40;99.90;;;;;;4927450;29;20052;-69
2021/06/19 07:22:03;;;;;;;24.75;20.15;;;20.40;99.90;;;;;;4927135;29;20078;-66
2021/06/19 07:24:28;;;;;;;23.65;19.92;;;20.30;99.90;;;;;;4926038;29;20044;-66
2021/06/19 07:26:55;;;;;;;25.58;22.17;;;20.30;99.90;;;;;;4926490;29;20050;-66
2021/06/19 07:29:21;;;;;;;25.60;19.70;;;20.40;99.90;;;;;;4915756;29;20111;-66
2021/06/19 07:31:46;;;;;;;24.27;19.60;;;20.50;99.90;;;;;;4928651;29;20104;-66
2021/06/19 07:34:12;;;;;;;26.67;21.20;;;20.60;99.90;;;;;;4927433;29;20108;-67
2021/06/19 07:36:41;;;;;;;25.23;21.98;;;20.70;99.90;;;;;;4927433;29;20048;-64
2021/06/19 07:39:07;;;;;;;26.60;22.35;;;20.60;99.90;;;;;;4925489;29;20169;-65
2021/06/19 07:41:34;;;;;;;27.50;22.63;;;20.70;99.90;;;;;;4926654;29;20055;-65
2021/06/19 07:44:01;;;;;;;29.67;22.83;;;20.70;99.90;;;;;;4927445;29;20048;-66
2021/06/19 07:46:27;;;;;;;30.35;23.30;;;20.60;99.90;;;;;;4927776;29;20086;-66
2021/06/19 07:48:53;;;;;;;29.25;22.80;;;20.60;99.90;;;;;;4927204;29;20040;-66
2021/06/19 07:51:19;;;;;;;29.42;22.70;;;20.60;99.90;;;;;;4927389;29;20048;-67
2021/06/19 07:53:44;;;;;;;27.38;22.05;;;20.60;99.90;;;;;;4928305;29;20051;-66
2021/06/19 07:56:10;;;;;;;25.40;20.52;;;20.60;99.90;;;;;;4927930;29;20142;-66
2021/06/19 07:58:36;;;;;;;26.95;19.73;;;20.80;99.90;;;;;;4928169;29;20044;-66
2021/06/19 08:01:02;;;;;;;27.13;19.00;;;20.90;99.90;;;;;;4920850;28;20056;-66
2021/06/19 08:03:28;;;;;;;26.02;19.15;;;21.00;99.90;;;;;;4925611;29;20059;-66
2021/06/19 08:05:55;;;;;;;25.02;19.33;;;21.00;99.90;;;;;;4926900;29;20055;-65
2021/06/19 08:08:21;;;;;;;22.60;18.42;;;21.10;99.90;;;;;;4929097;29;20052;-64
2021/06/19 08:10:48;;;;;;;21.48;16.67;;;21.00;99.90;;;;;;4930112;29;20174;-65
2021/06/19 08:13:14;;;;;;;21.90;17.85;;;20.90;99.90;;;;;;4929620;29;20048;-66
2021/06/19 08:15:40;;;;;;;25.60;19.10;;;21.00;99.90;;;;;;4931043;29;20044;-67
2021/06/19 08:18:06;;;;;;;21.13;16.92;;;21.00;99.90;;;;;;4929608;29;20050;-66
2021/06/19 08:20:32;;;;;;;25.88;17.90;;;21.10;99.90;;;;;;4928409;29;20071;-67
2021/06/19 08:22:58;;;;;;;24.52;17.30;;;21.10;99.90;;;;;;4929573;29;20050;-65
2021/06/19 08:25:24;;;;;;;18.92;15.02;;;21.10;99.90;;;;;;4929748;29;20056;-66
2021/06/19 08:27:51;;;;;;;21.88;15.45;;;21.10;99.90;;;;;;4929203;29;20601;-66
2021/06/19 08:30:17;;;;;;;21.23;15.38;;;21.10;99.90;;;;;;4925134;29;20060;-66
2021/06/19 08:32:42;;;;;;;20.02;15.07;;;21.20;99.90;;;;;;4929355;29;20492;-65
2021/06/19 08:35:09;;;;;;;19.90;14.60;;;21.20;99.90;;;;;;4928815;29;20079;-65
2021/06/19 08:37:35;;;;;;;18.38;14.48;;;21.20;99.90;;;;;;4928254;29;20051;-64
2021/06/19 08:40:01;;;;;;;21.27;15.75;;;21.10;99.90;;;;;;4929463;29;20479;-65
2021/06/19 08:42:27;;;;;;;20.92;16.35;;;21.00;99.90;;;;;;4929545;29;20048;-64
2021/06/19 08:44:57;;;;;;;24.70;16.80;;;21.10;99.90;;;;;;4930010;29;20100;-64
2021/06/19 08:47:24;;;;;;;22.30;16.27;;;21.30;99.90;;;;;;4928251;29;20136;-64
2021/06/19 08:49:51;;;;;;;22.52;16.83;;;21.50;99.90;;;;;;4929578;29;20071;-64
2021/06/19 08:52:18;;;;;;;18.65;15.18;;;21.50;99.90;;;;;;4929988;29;20052;-64
2021/06/19 08:54:44;;;;;;;20.90;14.23;;;21.60;99.90;;;;;;4929463;29;20044;-65
2021/06/19 08:57:13;;;;;;;22.45;15.10;;;21.60;99.90;;;;;;4930678;29;20052;-64
2021/06/19 08:59:49;;;;;;;20.33;15.40;;;21.60;99.90;;;;;;4930535;29;20039;-64
2021/06/19 09:02:17;;;;;;;21.13;15.65;;;21.70;99.90;;;;;;4930103;29;20307;-64
2021/06/19 09:04:51;;;;;;;18.83;14.50;;;21.70;99.90;;;;;;4929282;29;20063;-65
2021/06/19 09:07:44;;;;;;;20.05;14.63;;;21.90;99.90;;;;;;4928785;29;20052;-64
2021/06/19 09:10:17;;;;;;;19.48;13.35;;;22.00;99.90;;;;;;4916740;29;20060;-64
2021/06/19 09:12:57;;;;;;;18.15;13.75;;;22.20;99.90;;;;;;4881269;29;20055;-65
2021/06/19 09:15:22;;;;;;;19.73;14.88;;;22.20;99.90;;;;;;4929252;29;20054;-64
2021/06/19 09:18:02;;;;;;;20.40;14.90;;;22.20;99.90;;;;;;4929733;29;20060;-65
2021/06/19 09:20:39;;;;;;;20.58;15.48;;;22.10;99.90;;;;;;4925110;29;20048;-65
2021/06/19 09:23:07;;;;;;;17.35;13.90;;;22.00;99.90;;;;;;4922288;29;20056;-65
2021/06/19 09:25:33;;;;;;;13.98;11.00;;;22.20;99.90;;;;;;4930222;29;20052;-65
2021/06/19 09:28:00;;;;;;;13.80;11.68;;;22.30;99.90;;;;;;4928195;29;20055;-64
2021/06/19 09:30:28;;;;;;;13.50;10.70;;;22.10;99.90;;;;;;4927656;29;20055;-71
2021/06/19 09:32:55;;;;;;;12.45;11.15;;;22.20;99.90;;;;;;4925275;29;20070;-65
2021/06/19 09:35:30;;;;;;;13.90;11.05;;;22.20;99.90;;;;;;4927855;29;20044;-66
2021/06/19 09:38:13;;;;;;;16.00;12.60;;;22.10;99.90;;;;;;4909263;29;20056;-65
2021/06/19 09:40:41;;;;;;;14.70;12.10;;;22.10;99.90;;;;;;4923256;29;20048;-66
2021/06/19 09:43:12;;;;;;;14.68;13.18;;;22.20;99.90;;;;;;4924153;29;20461;-64
2021/06/19 09:45:42;;;;;;;17.33;12.75;;;22.10;99.90;;;;;;4934973;29;20055;-64
2021/06/19 09:48:32;;;;;;;16.45;12.77;;;22.10;99.90;;;;;;4928677;29;20055;-65
2021/06/19 09:51:15;;;;;;;17.15;14.25;;;22.00;99.90;;;;;;4912389;29;20056;-66
2021/06/19 09:53:44;;;;;;;15.88;12.90;;;22.00;99.90;;;;;;4936314;29;20123;-65
2021/06/19 09:56:12;;;;;;;16.27;13.25;;;21.90;99.90;;;;;;4911084;29;20115;-65
2021/06/19 09:58:46;;;;;;;13.40;10.90;;;22.00;99.90;;;;;;4936475;29;20038;-65
2021/06/19 10:01:19;;;;;;;14.07;10.95;;;22.20;99.90;;;;;;4915310;29;20058;-65
2021/06/19 10:03:57;;;;;;;16.52;12.15;;;22.50;99.90;;;;;;4933232;29;20509;-65
2021/06/19 10:06:24;;;;;;;13.40;10.73;;;22.60;99.90;;;;;;4915935;29;20611;-65
2021/06/19 10:08:51;;;;;;;13.70;11.25;;;22.70;99.90;;;;;;4906641;29;20040;-65
2021/06/19 10:11:18;;;;;;;13.45;10.32;;;22.90;99.90;;;;;;4916556;29;20085;-65
2021/06/19 10:13:45;;;;;;;15.15;11.30;;;22.90;99.90;;;;;;4918083;28;20056;-65
2021/06/19 10:16:13;;;;;;;13.25;10.85;;;22.90;99.90;;;;;;4914651;29;20048;-65
2021/06/19 10:18:41;;;;;;;13.70;10.35;;;22.90;99.90;;;;;;4932839;29;20051;-65
2021/06/19 10:21:08;;;;;;;13.35;11.27;;;22.80;99.90;;;;;;4913546;29;20063;-65
2021/06/19 10:23:35;;;;;;;11.23;9.18;;;22.60;99.90;;;;;;4921550;29;20055;-65
2021/06/19 10:26:01;;;;;;;10.98;8.90;;;22.70;99.90;;;;;;4922251;29;20040;-66
2021/06/19 10:28:29;;;;;;;14.32;10.60;;;22.90;99.90;;;;;;4927044;29;20512;-66
2021/06/19 10:30:57;;;;;;;11.02;8.90;;;22.80;99.90;;;;;;4922624;29;20092;-64
2021/06/19 10:33:28;;;;;;;14.00;10.80;;;22.90;99.90;;;;;;4928297;29;20424;-64
2021/06/19 10:35:56;;;;;;;11.07;9.98;;;23.00;99.90;;;;;;4921902;29;20048;-65
2021/06/19 10:38:23;;;;;;;14.73;11.02;;;23.10;99.90;;;;;;4924230;29;20559;-65
2021/06/19 10:40:55;;;;;;;12.25;10.07;;;23.00;99.90;;;;;;4922418;29;20044;-65
2021/06/19 10:43:22;;;;;;;12.10;10.55;;;23.10;99.90;;;;;;4928669;29;20070;-65
2021/06/19 10:45:51;;;;;;;11.20;10.10;;;23.00;99.90;;;;;;4923097;29;20044;-64
2021/06/19 10:48:19;;;;;;;11.65;10.55;;;22.90;99.90;;;;;;4928002;29;20065;-64
2021/06/19 10:50:49;;;;;;;10.60;9.15;;;22.80;99.90;;;;;;4922343;29;20047;-64
2021/06/19 10:53:17;;;;;;;13.95;10.52;;;22.90;99.90;;;;;;4927272;29;20066;-64
2021/06/19 10:55:43;;;;;;;14.05;10.02;;;23.00;99.90;;;;;;4922300;29;20048;-64
2021/06/19 10:58:21;;;;;;;13.45;11.32;;;22.90;99.90;;;;;;4925359;29;20531;-66
2021/06/19 11:00:55;;;;;;;11.80;10.57;;;22.90;99.90;;;;;;4919163;29;20067;-63
2021/06/19 11:03:48;;;;;;;10.65;9.65;;;23.10;99.90;;;;;;4926343;29;20056;-64
2021/06/19 11:06:28;;;;;;;10.57;8.88;;;23.10;99.90;;;;;;4911968;29;20052;-64
2021/06/19 11:09:03;;;;;;;;;;;23.30;99.90;;;;;;4931838;29;20131;-64
2021/06/19 11:11:44;;;;;;;11.10;9.90;;;23.10;99.90;;;;;;4915829;29;20004;-64
2021/06/19 11:14:10;;;;;;;12.00;9.30;;;23.00;99.90;;;;;;4913901;29;20067;-64
2021/06/19 11:16:36;;;;;;;12.93;10.05;;;23.20;99.90;;;;;;4916600;29;20490;-64
2021/06/19 11:19:02;;;;;;;10.73;9.48;;;23.20;99.90;;;;;;4921516;29;20059;-64
2021/06/19 11:21:32;;;;;;;9.60;8.57;;;23.30;99.90;;;;;;4906911;29;20080;-65
2021/06/19 11:24:04;;;;;;;;;;;23.30;99.90;;;;;;4935541;29;20051;-64
2021/06/19 11:27:00;;;;;;;12.02;10.73;;;23.10;99.90;;;;;;4915561;29;19930;-64
2021/06/19 11:29:40;;;;;;;9.63;8.63;;;23.40;99.90;;;;;;4934145;29;20548;-64
2021/06/19 11:32:25;;;;;;;;;;;23.10;99.90;;;;;;4919985;29;20111;-64
2021/06/19 11:34:52;;;;;;;9.20;8.27;;;23.10;99.90;;;;;;4931672;29;19930;-64
2021/06/19 11:37:18;;;;;;;8.48;7.68;;;23.30;99.90;;;;;;4920824;29;20653;-64
2021/06/19 11:39:45;;;;;;;7.82;7.13;;;23.50;99.90;;;;;;4931004;29;20239;-63
2021/06/19 11:42:11;;;;;;;7.53;6.82;;;23.80;99.90;;;;;;4921898;29;20070;-64
2021/06/19 11:44:42;;;;;;;7.25;6.55;;;23.80;99.90;;;;;;4934395;29;20040;-64
2021/06/19 11:47:09;;;;;;;7.95;6.90;;;23.90;99.90;;;;;;4922961;29;20060;-64
2021/06/19 11:49:38;;;;;;;7.18;6.40;;;23.90;99.90;;;;;;4926329;29;20059;-64
2021/06/19 11:52:05;;;;;;;6.47;5.82;;;23.90;99.90;;;;;;4921445;29;20063;-64
2021/06/19 11:54:32;;;;;;;7.35;6.65;;;24.00;99.90;;;;;;4940317;29;20051;-63
2021/06/19 11:56:58;;;;;;;7.20;6.50;;;24.00;99.90;;;;;;4919461;29;20618;-63
2021/06/19 11:59:27;;;;;;;8.10;7.40;;;24.10;99.90;;;;;;4929220;29;20040;-64
2021/06/19 12:01:52;;;;;;;8.75;7.40;;;23.90;99.90;;;;;;4915836;29;20048;-64
2021/06/19 12:04:21;;;;;;;6.97;6.28;;;23.90;99.90;;;;;;4937780;29;20052;-64
2021/06/19 12:07:01;;;;;;;9.03;8.13;;;24.20;99.90;;;;;;4916594;29;20040;-64
2021/06/19 12:09:31;;;;;;;10.68;9.23;;;24.20;99.90;;;;;;4936345;29;20052;-64
2021/06/19 12:12:06;;;;;;;10.23;9.23;;;24.20;99.90;;;;;;4920316;29;20090;-64
2021/06/19 12:14:37;;;;;;;9.57;8.68;;;23.70;99.90;;;;;;4881146;28;20099;-64
2021/06/19 12:17:08;;;;;;;10.27;9.38;;;23.90;99.90;;;;;;4920742;29;20085;-64
2021/06/19 12:19:37;;;;;;;12.10;11.02;;;23.90;99.90;;;;;;4927707;29;20048;-64
2021/06/19 12:22:09;;;;;;;12.20;11.07;;;24.00;99.90;;;;;;4919460;29;20055;-64
2021/06/19 12:24:37;;;;;;;12.00;10.90;;;24.10;99.90;;;;;;4936213;29;20221;-64
2021/06/19 12:27:20;;;;;;;10.35;9.45;;;24.10;99.90;;;;;;4920070;29;20095;-64
2021/06/19 12:30:01;;;;;;;10.13;9.13;;;24.10;99.90;;;;;;4935658;29;20036;-68
2021/06/19 12:32:31;;;;;;;10.05;9.07;;;24.20;99.90;;;;;;4921395;29;20150;-65
2021/06/19 12:35:04;;;;;;;10.63;9.73;;;24.30;99.90;;;;;;4926079;29;20108;-66
2021/06/19 12:37:33;;;;;;;10.68;9.77;;;24.20;99.90;;;;;;4917935;29;20051;-64